sensor_id;sensor_type;location;lat;lon;timestamp;P1;durP1;ratioP1;P2;durP2;ratioP2
53052;SDS011;38934;52.690;6.184;2022-09-03T00:04:41;2.50;;;1.90;;
53052;SDS011;38934;52.690;6.184;2022-09-03T00:10:42;1.85;;;1.60;;
53052;SDS011;38934;52.690;6.184;2022-09-03T00:13:22;1.75;;;1.60;;
53052;SDS011;38934;52.690;6.184;2022-09-03T00:15:52;2.30;;;1.67;;
53052;SDS011;38934;52.690;6.184;2022-09-03T00:18:22;2.05;;;1.52;;
53052;SDS011;38934;52.690;6.184;2022-09-03T00:21:00;2.42;;;1.55;;
53052;SDS011;38934;52.690;6.184;2022-09-03T00:23:32;3.28;;;1.77;;
53052;SDS011;38934;52.690;6.184;2022-09-03T00:31:34;2.88;;;1.60;;
53052;SDS011;38934;52.690;6.184;2022-09-03T00:36:45;1.70;;;1.60;;
53052;SDS011;38934;52.690;6.184;2022-09-03T00:39:11;3.35;;;1.73;;
53052;SDS011;38934;52.690;6.184;2022-09-03T00:52:57;3.20;;;1.60;;
53052;SDS011;38934;52.690;6.184;2022-09-03T01:00:34;1.70;;;1.60;;
53052;SDS011;38934;52.690;6.184;2022-09-03T01:03:06;2.80;;;1.70;;
53052;SDS011;38934;52.690;6.184;2022-09-03T01:11:02;7.25;;;1.70;;
53052;SDS011;38934;52.690;6.184;2022-09-03T01:13:49;6.93;;;1.70;;
53052;SDS011;38934;52.690;6.184;2022-09-03T01:17:21;2.38;;;1.60;;
53052;SDS011;38934;52.690;6.184;2022-09-03T01:19:31;3.47;;;1.75;;
53052;SDS011;38934;52.690;6.184;2022-09-03T01:27:44;1.67;;;1.40;;
53052;SDS011;38934;52.690;6.184;2022-09-03T01:30:31;1.30;;;1.30;;
53052;SDS011;38934;52.690;6.184;2022-09-03T01:36:06;2.28;;;1.48;;
53052;SDS011;38934;52.690;6.184;2022-09-03T01:38:54;1.63;;;1.52;;
53052;SDS011;38934;52.690;6.184;2022-09-03T01:44:49;1.58;;;1.48;;
53052;SDS011;38934;52.690;6.184;2022-09-03T01:50:30;4.35;;;1.45;;
53052;SDS011;38934;52.690;6.184;2022-09-03T01:58:53;2.90;;;1.70;;
53052;SDS011;38934;52.690;6.184;2022-09-03T02:01:32;1.70;;;1.60;;
53052;SDS011;38934;52.690;6.184;2022-09-03T02:04:18;2.78;;;1.50;;
53052;SDS011;38934;52.690;6.184;2022-09-03T02:06:47;1.83;;;1.40;;
53052;SDS011;38934;52.690;6.184;2022-09-03T02:09:15;1.80;;;1.50;;
53052;SDS011;38934;52.690;6.184;2022-09-03T02:11:41;3.08;;;1.50;;
53052;SDS011;38934;52.690;6.184;2022-09-03T02:14:11;1.50;;;1.40;;
53052;SDS011;38934;52.690;6.184;2022-09-03T02:16:37;1.55;;;1.45;;
53052;SDS011;38934;52.690;6.184;2022-09-03T02:19:10;2.05;;;1.50;;
53052;SDS011;38934;52.690;6.184;2022-09-03T02:21:43;2.17;;;1.70;;
53052;SDS011;38934;52.690;6.184;2022-09-03T02:24:15;1.40;;;1.30;;
53052;SDS011;38934;52.690;6.184;2022-09-03T02:26:41;2.10;;;1.67;;
53052;SDS011;38934;52.690;6.184;2022-09-03T02:29:07;2.00;;;1.70;;
53052;SDS011;38934;52.690;6.184;2022-09-03T02:31:34;1.98;;;1.40;;
53052;SDS011;38934;52.690;6.184;2022-09-03T02:34:00;2.30;;;1.70;;
53052;SDS011;38934;52.690;6.184;2022-09-03T02:36:27;1.30;;;1.20;;
53052;SDS011;38934;52.690;6.184;2022-09-03T02:38:57;3.17;;;1.50;;
53052;SDS011;38934;52.690;6.184;2022-09-03T02:41:23;1.30;;;1.20;;
53052;SDS011;38934;52.690;6.184;2022-09-03T02:46:28;1.40;;;1.30;;
53052;SDS011;38934;52.690;6.184;2022-09-03T02:49:02;1.42;;;1.33;;
53052;SDS011;38934;52.690;6.184;2022-09-03T02:54:03;2.03;;;1.25;;
53052;SDS011;38934;52.690;6.184;2022-09-03T02:56:29;1.40;;;1.30;;
53052;SDS011;38934;52.690;6.184;2022-09-03T02:58:54;2.65;;;1.63;;
53052;SDS011;38934;52.690;6.184;2022-09-03T03:01:21;1.75;;;1.50;;
53052;SDS011;38934;52.690;6.184;2022-09-03T03:03:47;1.95;;;1.50;;
53052;SDS011;38934;52.690;6.184;2022-09-03T03:06:15;2.30;;;1.30;;
53052;SDS011;38934;52.690;6.184;2022-09-03T03:08:44;1.40;;;1.30;;
53052;SDS011;38934;52.690;6.184;2022-09-03T03:11:10;3.95;;;1.20;;
53052;SDS011;38934;52.690;6.184;2022-09-03T03:13:37;1.48;;;1.38;;
53052;SDS011;38934;52.690;6.184;2022-09-03T03:16:04;1.35;;;1.25;;
53052;SDS011;38934;52.690;6.184;2022-09-03T03:18:30;1.58;;;1.20;;
53052;SDS011;38934;52.690;6.184;2022-09-03T03:21:02;1.40;;;1.30;;
53052;SDS011;38934;52.690;6.184;2022-09-03T03:23:31;1.30;;;1.20;;
53052;SDS011;38934;52.690;6.184;2022-09-03T03:26:01;2.30;;;1.20;;
53052;SDS011;38934;52.690;6.184;2022-09-03T03:33:33;1.10;;;1.10;;
53052;SDS011;38934;52.690;6.184;2022-09-03T03:36:03;1.98;;;1.25;;
53052;SDS011;38934;52.690;6.184;2022-09-03T03:38:39;1.90;;;1.40;;
53052;SDS011;38934;52.690;6.184;2022-09-03T03:41:07;3.30;;;1.20;;
53052;SDS011;38934;52.690;6.184;2022-09-03T03:43:36;2.17;;;1.33;;
53052;SDS011;38934;52.690;6.184;2022-09-03T03:46:03;2.45;;;1.10;;
53052;SDS011;38934;52.690;6.184;2022-09-03T03:48:29;2.25;;;1.45;;
53052;SDS011;38934;52.690;6.184;2022-09-03T03:50:58;1.40;;;1.30;;
53052;SDS011;38934;52.690;6.184;2022-09-03T03:53:25;1.23;;;1.13;;
53052;SDS011;38934;52.690;6.184;2022-09-03T03:55:58;1.48;;;1.20;;
53052;SDS011;38934;52.690;6.184;2022-09-03T03:58:26;1.23;;;1.10;;
53052;SDS011;38934;52.690;6.184;2022-09-03T04:00:52;1.70;;;1.25;;
53052;SDS011;38934;52.690;6.184;2022-09-03T04:03:18;1.40;;;1.30;;
53052;SDS011;38934;52.690;6.184;2022-09-03T04:05:57;1.30;;;1.20;;
53052;SDS011;38934;52.690;6.184;2022-09-03T04:08:25;1.70;;;1.20;;
53052;SDS011;38934;52.690;6.184;2022-09-03T04:10:52;6.88;;;2.10;;
53052;SDS011;38934;52.690;6.184;2022-09-03T04:13:17;1.35;;;1.25;;
53052;SDS011;38934;52.690;6.184;2022-09-03T04:15:43;1.52;;;1.20;;
53052;SDS011;38934;52.690;6.184;2022-09-03T04:18:09;2.80;;;1.23;;
53052;SDS011;38934;52.690;6.184;2022-09-03T04:20:35;1.75;;;1.50;;
53052;SDS011;38934;52.690;6.184;2022-09-03T04:23:02;2.72;;;1.50;;
53052;SDS011;38934;52.690;6.184;2022-09-03T04:25:30;1.98;;;1.30;;
53052;SDS011;38934;52.690;6.184;2022-09-03T04:27:56;1.55;;;1.30;;
53052;SDS011;38934;52.690;6.184;2022-09-03T04:30:21;1.50;;;1.40;;
53052;SDS011;38934;52.690;6.184;2022-09-03T04:32:50;1.80;;;1.60;;
53052;SDS011;38934;52.690;6.184;2022-09-03T04:35:20;1.27;;;1.17;;
53052;SDS011;38934;52.690;6.184;2022-09-03T04:37:47;1.20;;;1.10;;
53052;SDS011;38934;52.690;6.184;2022-09-03T04:40:13;1.30;;;1.20;;
53052;SDS011;38934;52.690;6.184;2022-09-03T04:42:38;1.30;;;1.20;;
53052;SDS011;38934;52.690;6.184;2022-09-03T04:45:04;2.70;;;1.40;;
53052;SDS011;38934;52.690;6.184;2022-09-03T04:47:31;1.48;;;1.33;;
53052;SDS011;38934;52.690;6.184;2022-09-03T04:49:57;1.70;;;1.58;;
53052;SDS011;38934;52.690;6.184;2022-09-03T04:52:23;1.40;;;1.30;;
53052;SDS011;38934;52.690;6.184;2022-09-03T04:54:49;1.58;;;1.48;;
53052;SDS011;38934;52.690;6.184;2022-09-03T04:57:15;1.50;;;1.40;;
53052;SDS011;38934;52.690;6.184;2022-09-03T04:59:40;1.90;;;1.42;;
53052;SDS011;38934;52.690;6.184;2022-09-03T05:02:07;2.22;;;1.77;;
53052;SDS011;38934;52.690;6.184;2022-09-03T05:04:34;1.40;;;1.30;;
53052;SDS011;38934;52.690;6.184;2022-09-03T05:06:59;3.42;;;1.40;;
53052;SDS011;38934;52.690;6.184;2022-09-03T05:09:25;2.13;;;1.40;;
53052;SDS011;38934;52.690;6.184;2022-09-03T05:11:51;3.65;;;1.50;;
53052;SDS011;38934;52.690;6.184;2022-09-03T05:14:17;1.50;;;1.40;;
53052;SDS011;38934;52.690;6.184;2022-09-03T05:16:43;1.63;;;1.52;;
53052;SDS011;38934;52.690;6.184;2022-09-03T05:19:10;1.60;;;1.50;;
53052;SDS011;38934;52.690;6.184;2022-09-03T05:21:36;1.50;;;1.40;;
53052;SDS011;38934;52.690;6.184;2022-09-03T05:24:02;1.50;;;1.40;;
53052;SDS011;38934;52.690;6.184;2022-09-03T05:26:30;1.73;;;1.63;;
53052;SDS011;38934;52.690;6.184;2022-09-03T05:29:03;1.65;;;1.55;;
53052;SDS011;38934;52.690;6.184;2022-09-03T05:31:33;1.60;;;1.50;;
53052;SDS011;38934;52.690;6.184;2022-09-03T05:34:01;3.05;;;1.50;;
53052;SDS011;38934;52.690;6.184;2022-09-03T05:36:32;1.63;;;1.52;;
53052;SDS011;38934;52.690;6.184;2022-09-03T05:39:00;1.52;;;1.38;;
53052;SDS011;38934;52.690;6.184;2022-09-03T05:41:26;2.53;;;1.35;;
53052;SDS011;38934;52.690;6.184;2022-09-03T05:43:54;1.50;;;1.40;;
53052;SDS011;38934;52.690;6.184;2022-09-03T05:46:23;3.70;;;1.63;;
53052;SDS011;38934;52.690;6.184;2022-09-03T05:49:00;2.08;;;1.50;;
53052;SDS011;38934;52.690;6.184;2022-09-03T05:51:27;3.58;;;1.50;;
53052;SDS011;38934;52.690;6.184;2022-09-03T05:53:54;2.85;;;1.30;;
53052;SDS011;38934;52.690;6.184;2022-09-03T05:56:28;2.75;;;1.42;;
53052;SDS011;38934;52.690;6.184;2022-09-03T05:58:56;1.40;;;1.30;;
53052;SDS011;38934;52.690;6.184;2022-09-03T06:01:26;2.15;;;1.50;;
53052;SDS011;38934;52.690;6.184;2022-09-03T06:03:57;1.50;;;1.40;;
53052;SDS011;38934;52.690;6.184;2022-09-03T06:06:23;2.25;;;1.50;;
53052;SDS011;38934;52.690;6.184;2022-09-03T06:08:54;3.88;;;1.55;;
53052;SDS011;38934;52.690;6.184;2022-09-03T06:11:22;3.80;;;1.45;;
53052;SDS011;38934;52.690;6.184;2022-09-03T06:13:53;1.70;;;1.38;;
53052;SDS011;38934;52.690;6.184;2022-09-03T06:16:20;3.38;;;1.88;;
53052;SDS011;38934;52.690;6.184;2022-09-03T06:18:47;2.33;;;1.77;;
53052;SDS011;38934;52.690;6.184;2022-09-03T06:21:13;3.90;;;1.50;;
53052;SDS011;38934;52.690;6.184;2022-09-03T06:23:39;1.90;;;1.42;;
53052;SDS011;38934;52.690;6.184;2022-09-03T06:26:06;1.50;;;1.40;;
53052;SDS011;38934;52.690;6.184;2022-09-03T06:28:34;2.20;;;1.60;;
53052;SDS011;38934;52.690;6.184;2022-09-03T06:31:02;2.95;;;1.70;;
53052;SDS011;38934;52.690;6.184;2022-09-03T06:33:30;1.90;;;1.50;;
53052;SDS011;38934;52.690;6.184;2022-09-03T06:35:58;2.65;;;1.45;;
53052;SDS011;38934;52.690;6.184;2022-09-03T06:38:25;1.60;;;1.50;;
53052;SDS011;38934;52.690;6.184;2022-09-03T06:40:59;2.50;;;1.63;;
53052;SDS011;38934;52.690;6.184;2022-09-03T06:43:29;1.70;;;1.60;;
53052;SDS011;38934;52.690;6.184;2022-09-03T06:46:02;3.47;;;1.73;;
53052;SDS011;38934;52.690;6.184;2022-09-03T06:48:31;2.28;;;1.67;;
53052;SDS011;38934;52.690;6.184;2022-09-03T06:50:59;2.03;;;1.83;;
53052;SDS011;38934;52.690;6.184;2022-09-03T06:53:27;1.90;;;1.70;;
53052;SDS011;38934;52.690;6.184;2022-09-03T06:55:55;3.25;;;1.60;;
53052;SDS011;38934;52.690;6.184;2022-09-03T06:58:23;3.08;;;1.65;;
53052;SDS011;38934;52.690;6.184;2022-09-03T07:00:50;1.70;;;1.60;;
53052;SDS011;38934;52.690;6.184;2022-09-03T07:03:19;2.13;;;1.50;;
53052;SDS011;38934;52.690;6.184;2022-09-03T07:05:45;1.92;;;1.60;;
53052;SDS011;38934;52.690;6.184;2022-09-03T07:08:12;2.35;;;1.63;;
53052;SDS011;38934;52.690;6.184;2022-09-03T07:10:38;2.55;;;1.60;;
53052;SDS011;38934;52.690;6.184;2022-09-03T07:13:04;3.03;;;1.77;;
53052;SDS011;38934;52.690;6.184;2022-09-03T07:15:32;1.63;;;1.52;;
53052;SDS011;38934;52.690;6.184;2022-09-03T07:17:58;1.80;;;1.70;;
53052;SDS011;38934;52.690;6.184;2022-09-03T07:20:27;3.55;;;1.50;;
53052;SDS011;38934;52.690;6.184;2022-09-03T07:22:56;2.58;;;1.60;;
53052;SDS011;38934;52.690;6.184;2022-09-03T07:25:24;1.60;;;1.50;;
53052;SDS011;38934;52.690;6.184;2022-09-03T07:27:51;3.80;;;1.55;;
53052;SDS011;38934;52.690;6.184;2022-09-03T07:30:16;1.52;;;1.42;;
53052;SDS011;38934;52.690;6.184;2022-09-03T07:32:44;1.85;;;1.50;;
53052;SDS011;38934;52.690;6.184;2022-09-03T07:35:11;3.53;;;1.60;;
53052;SDS011;38934;52.690;6.184;2022-09-03T07:37:41;4.40;;;1.70;;
53052;SDS011;38934;52.690;6.184;2022-09-03T07:40:08;4.97;;;1.60;;
53052;SDS011;38934;52.690;6.184;2022-09-03T07:42:35;2.10;;;1.50;;
53052;SDS011;38934;52.690;6.184;2022-09-03T07:45:07;2.88;;;1.35;;
53052;SDS011;38934;52.690;6.184;2022-09-03T07:47:36;1.55;;;1.40;;
53052;SDS011;38934;52.690;6.184;2022-09-03T07:50:05;3.20;;;1.50;;
53052;SDS011;38934;52.690;6.184;2022-09-03T07:52:31;2.05;;;1.52;;
53052;SDS011;38934;52.690;6.184;2022-09-03T07:54:57;1.95;;;1.50;;
53052;SDS011;38934;52.690;6.184;2022-09-03T07:57:23;3.55;;;1.50;;
53052;SDS011;38934;52.690;6.184;2022-09-03T07:59:49;3.58;;;1.45;;
53052;SDS011;38934;52.690;6.184;2022-09-03T08:02:14;2.50;;;1.50;;
53052;SDS011;38934;52.690;6.184;2022-09-03T08:04:40;1.83;;;1.67;;
53052;SDS011;38934;52.690;6.184;2022-09-03T08:07:07;1.50;;;1.40;;
53052;SDS011;38934;52.690;6.184;2022-09-03T08:09:33;1.88;;;1.55;;
53052;SDS011;38934;52.690;6.184;2022-09-03T08:11:59;1.55;;;1.45;;
53052;SDS011;38934;52.690;6.184;2022-09-03T08:14:24;2.65;;;1.58;;
53052;SDS011;38934;52.690;6.184;2022-09-03T08:16:50;2.08;;;1.30;;
53052;SDS011;38934;52.690;6.184;2022-09-03T08:19:16;3.10;;;1.50;;
53052;SDS011;38934;52.690;6.184;2022-09-03T08:21:42;1.88;;;1.40;;
53052;SDS011;38934;52.690;6.184;2022-09-03T08:24:08;1.85;;;1.50;;
53052;SDS011;38934;52.690;6.184;2022-09-03T08:26:36;1.42;;;1.33;;
53052;SDS011;38934;52.690;6.184;2022-09-03T08:29:08;2.58;;;1.50;;
53052;SDS011;38934;52.690;6.184;2022-09-03T08:31:34;3.50;;;1.50;;
53052;SDS011;38934;52.690;6.184;2022-09-03T08:34:01;2.53;;;1.48;;
53052;SDS011;38934;52.690;6.184;2022-09-03T08:36:32;2.22;;;1.40;;
53052;SDS011;38934;52.690;6.184;2022-09-03T08:39:00;1.75;;;1.50;;
53052;SDS011;38934;52.690;6.184;2022-09-03T08:41:56;2.22;;;1.40;;
53052;SDS011;38934;52.690;6.184;2022-09-03T08:44:40;3.25;;;1.30;;
53052;SDS011;38934;52.690;6.184;2022-09-03T08:52:54;4.38;;;1.38;;
53052;SDS011;38934;52.690;6.184;2022-09-03T08:55:30;3.78;;;1.60;;
53052;SDS011;38934;52.690;6.184;2022-09-03T08:58:04;2.72;;;1.48;;
53052;SDS011;38934;52.690;6.184;2022-09-03T09:00:56;1.73;;;1.45;;
53052;SDS011;38934;52.690;6.184;2022-09-03T09:03:30;3.28;;;1.48;;
53052;SDS011;38934;52.690;6.184;2022-09-03T09:06:09;1.40;;;1.30;;
53052;SDS011;38934;52.690;6.184;2022-09-03T09:22:29;2.05;;;1.33;;
53052;SDS011;38934;52.690;6.184;2022-09-03T09:25:00;2.33;;;1.45;;
53052;SDS011;38934;52.690;6.184;2022-09-03T09:27:31;5.10;;;1.40;;
53052;SDS011;38934;52.690;6.184;2022-09-03T09:29:57;1.80;;;1.30;;
53052;SDS011;38934;52.690;6.184;2022-09-03T09:32:26;1.55;;;1.20;;
53052;SDS011;38934;52.690;6.184;2022-09-03T09:34:52;1.40;;;1.30;;
53052;SDS011;38934;52.690;6.184;2022-09-03T09:37:19;1.85;;;1.40;;
53052;SDS011;38934;52.690;6.184;2022-09-03T09:39:57;2.63;;;1.45;;
53052;SDS011;38934;52.690;6.184;2022-09-03T09:42:24;3.97;;;1.50;;
53052;SDS011;38934;52.690;6.184;2022-09-03T09:44:53;2.25;;;1.20;;
53052;SDS011;38934;52.690;6.184;2022-09-03T09:47:29;2.00;;;1.33;;
53052;SDS011;38934;52.690;6.184;2022-09-03T09:50:01;6.15;;;1.35;;
53052;SDS011;38934;52.690;6.184;2022-09-03T09:52:28;1.35;;;1.20;;
53052;SDS011;38934;52.690;6.184;2022-09-03T09:55:06;1.30;;;1.20;;
53052;SDS011;38934;52.690;6.184;2022-09-03T09:57:35;1.33;;;1.20;;
53052;SDS011;38934;52.690;6.184;2022-09-03T10:00:07;1.38;;;1.20;;
53052;SDS011;38934;52.690;6.184;2022-09-03T10:02:37;2.50;;;1.23;;
53052;SDS011;38934;52.690;6.184;2022-09-03T10:05:19;3.92;;;1.50;;
53052;SDS011;38934;52.690;6.184;2022-09-03T10:07:54;3.15;;;1.40;;
53052;SDS011;38934;52.690;6.184;2022-09-03T10:10:32;1.33;;;1.23;;
53052;SDS011;38934;52.690;6.184;2022-09-03T10:13:05;3.28;;;1.45;;
53052;SDS011;38934;52.690;6.184;2022-09-03T10:21:19;1.55;;;1.30;;
53052;SDS011;38934;52.690;6.184;2022-09-03T10:26:50;1.27;;;1.15;;
53052;SDS011;38934;52.690;6.184;2022-09-03T10:29:18;1.40;;;1.30;;
53052;SDS011;38934;52.690;6.184;2022-09-03T10:31:54;1.25;;;1.00;;
53052;SDS011;38934;52.690;6.184;2022-09-03T10:40:26;2.38;;;1.38;;
53052;SDS011;38934;52.690;6.184;2022-09-03T10:46:09;1.92;;;1.30;;
53052;SDS011;38934;52.690;6.184;2022-09-03T10:51:34;1.20;;;1.10;;
53052;SDS011;38934;52.690;6.184;2022-09-03T10:56:55;1.17;;;1.08;;
53052;SDS011;38934;52.690;6.184;2022-09-03T11:02:24;2.67;;;1.10;;
53052;SDS011;38934;52.690;6.184;2022-09-03T11:05:30;1.52;;;1.20;;
53052;SDS011;38934;52.690;6.184;2022-09-03T11:11:06;1.55;;;1.10;;
53052;SDS011;38934;52.690;6.184;2022-09-03T11:13:39;1.02;;;0.80;;
53052;SDS011;38934;52.690;6.184;2022-09-03T11:16:19;1.45;;;1.35;;
53052;SDS011;38934;52.690;6.184;2022-09-03T11:18:52;2.08;;;1.48;;
53052;SDS011;38934;52.690;6.184;2022-09-03T11:21:24;0.82;;;0.82;;
53052;SDS011;38934;52.690;6.184;2022-09-03T11:26:37;2.20;;;1.10;;
53052;SDS011;38934;52.690;6.184;2022-09-03T11:29:16;3.40;;;1.10;;
53052;SDS011;38934;52.690;6.184;2022-09-03T11:32:08;1.73;;;1.20;;
53052;SDS011;38934;52.690;6.184;2022-09-03T11:37:59;1.50;;;1.20;;
53052;SDS011;38934;52.690;6.184;2022-09-03T11:40:36;1.55;;;1.23;;
53052;SDS011;38934;52.690;6.184;2022-09-03T11:43:05;1.10;;;1.00;;
53052;SDS011;38934;52.690;6.184;2022-09-03T11:45:37;1.20;;;1.10;;
53052;SDS011;38934;52.690;6.184;2022-09-03T11:48:29;1.15;;;1.10;;
53052;SDS011;38934;52.690;6.184;2022-09-03T11:51:14;1.02;;;1.00;;
53052;SDS011;38934;52.690;6.184;2022-09-03T11:54:01;1.15;;;1.05;;
53052;SDS011;38934;52.690;6.184;2022-09-03T11:56:29;0.90;;;0.90;;
53052;SDS011;38934;52.690;6.184;2022-09-03T11:59:02;1.52;;;1.02;;
53052;SDS011;38934;52.690;6.184;2022-09-03T12:01:37;0.93;;;0.90;;
53052;SDS011;38934;52.690;6.184;2022-09-03T12:04:12;1.13;;;0.90;;
53052;SDS011;38934;52.690;6.184;2022-09-03T12:18:07;1.25;;;1.05;;
53052;SDS011;38934;52.690;6.184;2022-09-03T12:23:30;1.83;;;1.00;;
53052;SDS011;38934;52.690;6.184;2022-09-03T12:26:19;1.10;;;1.00;;
53052;SDS011;38934;52.690;6.184;2022-09-03T12:28:52;1.10;;;1.00;;
53052;SDS011;38934;52.690;6.184;2022-09-03T12:31:26;1.73;;;1.17;;
53052;SDS011;38934;52.690;6.184;2022-09-03T12:36:23;1.13;;;1.10;;
53052;SDS011;38934;52.690;6.184;2022-09-03T12:38:51;4.60;;;1.10;;
53052;SDS011;38934;52.690;6.184;2022-09-03T12:41:20;2.75;;;1.20;;
53052;SDS011;38934;52.690;6.184;2022-09-03T12:43:52;1.25;;;1.10;;
53052;SDS011;38934;52.690;6.184;2022-09-03T12:46:27;2.58;;;0.95;;
53052;SDS011;38934;52.690;6.184;2022-09-03T12:48:59;1.98;;;1.10;;
53052;SDS011;38934;52.690;6.184;2022-09-03T12:51:36;0.90;;;0.90;;
53052;SDS011;38934;52.690;6.184;2022-09-03T12:54:04;2.63;;;0.98;;
53052;SDS011;38934;52.690;6.184;2022-09-03T12:56:38;1.40;;;1.08;;
53052;SDS011;38934;52.690;6.184;2022-09-03T12:59:08;2.15;;;1.05;;
53052;SDS011;38934;52.690;6.184;2022-09-03T13:01:48;1.35;;;1.10;;
53052;SDS011;38934;52.690;6.184;2022-09-03T13:04:21;2.28;;;1.00;;
53052;SDS011;38934;52.690;6.184;2022-09-03T13:07:01;1.50;;;1.30;;
53052;SDS011;38934;52.690;6.184;2022-09-03T13:09:46;1.20;;;1.10;;
53052;SDS011;38934;52.690;6.184;2022-09-03T13:12:20;1.17;;;1.08;;
53052;SDS011;38934;52.690;6.184;2022-09-03T13:14:47;2.05;;;1.00;;
53052;SDS011;38934;52.690;6.184;2022-09-03T13:17:23;1.42;;;1.33;;
53052;SDS011;38934;52.690;6.184;2022-09-03T13:20:23;0.75;;;0.65;;
53052;SDS011;38934;52.690;6.184;2022-09-03T13:31:30;1.98;;;0.95;;
53052;SDS011;38934;52.690;6.184;2022-09-03T13:39:48;1.40;;;1.10;;
53052;SDS011;38934;52.690;6.184;2022-09-03T13:45:10;1.10;;;1.10;;
53052;SDS011;38934;52.690;6.184;2022-09-03T13:51:01;1.17;;;0.93;;
53052;SDS011;38934;52.690;6.184;2022-09-03T13:56:20;3.10;;;1.10;;
53052;SDS011;38934;52.690;6.184;2022-09-03T13:59:02;1.17;;;1.08;;
53052;SDS011;38934;52.690;6.184;2022-09-03T14:01:57;1.10;;;1.00;;
53052;SDS011;38934;52.690;6.184;2022-09-03T14:04:39;1.38;;;1.10;;
53052;SDS011;38934;52.690;6.184;2022-09-03T14:07:07;1.10;;;1.00;;
53052;SDS011;38934;52.690;6.184;2022-09-03T14:12:43;1.52;;;1.00;;
53052;SDS011;38934;52.690;6.184;2022-09-03T14:15:49;1.85;;;1.10;;
53052;SDS011;38934;52.690;6.184;2022-09-03T14:18:43;0.95;;;0.90;;
53052;SDS011;38934;52.690;6.184;2022-09-03T14:24:22;2.10;;;1.20;;
53052;SDS011;38934;52.690;6.184;2022-09-03T14:27:04;1.10;;;1.00;;
53052;SDS011;38934;52.690;6.184;2022-09-03T14:29:32;1.10;;;1.00;;
53052;SDS011;38934;52.690;6.184;2022-09-03T14:34:42;3.20;;;1.20;;
53052;SDS011;38934;52.690;6.184;2022-09-03T14:45:25;2.28;;;0.95;;
53052;SDS011;38934;52.690;6.184;2022-09-03T14:48:18;1.33;;;1.20;;
53052;SDS011;38934;52.690;6.184;2022-09-03T15:05:48;1.35;;;1.10;;
53052;SDS011;38934;52.690;6.184;2022-09-03T15:11:14;1.00;;;1.00;;
53052;SDS011;38934;52.690;6.184;2022-09-03T15:13:51;1.38;;;1.10;;
53052;SDS011;38934;52.690;6.184;2022-09-03T15:24:49;2.28;;;1.17;;
53052;SDS011;38934;52.690;6.184;2022-09-03T15:30:15;2.90;;;1.75;;
53052;SDS011;38934;52.690;6.184;2022-09-03T15:35:26;1.17;;;1.08;;
53052;SDS011;38934;52.690;6.184;2022-09-03T15:41:02;1.00;;;0.98;;
53052;SDS011;38934;52.690;6.184;2022-09-03T15:43:36;1.10;;;1.00;;
53052;SDS011;38934;52.690;6.184;2022-09-03T15:46:03;1.20;;;1.00;;
53052;SDS011;38934;52.690;6.184;2022-09-03T15:51:29;1.55;;;0.98;;
53052;SDS011;38934;52.690;6.184;2022-09-03T15:54:06;1.10;;;1.10;;
53052;SDS011;38934;52.690;6.184;2022-09-03T15:56:54;0.88;;;0.80;;
53052;SDS011;38934;52.690;6.184;2022-09-03T15:59:39;2.05;;;1.52;;
53052;SDS011;38934;52.690;6.184;2022-09-03T16:02:15;1.65;;;0.93;;
53052;SDS011;38934;52.690;6.184;2022-09-03T16:19:27;1.38;;;1.00;;
53052;SDS011;38934;52.690;6.184;2022-09-03T16:22:05;1.40;;;0.80;;
53052;SDS011;38934;52.690;6.184;2022-09-03T16:24:46;1.10;;;1.10;;
53052;SDS011;38934;52.690;6.184;2022-09-03T16:35:48;2.80;;;1.30;;
53052;SDS011;38934;52.690;6.184;2022-09-03T16:41:29;1.30;;;1.20;;
53052;SDS011;38934;52.690;6.184;2022-09-03T16:44:17;1.42;;;1.30;;
53052;SDS011;38934;52.690;6.184;2022-09-03T16:56:13;1.10;;;1.00;;
53052;SDS011;38934;52.690;6.184;2022-09-03T17:01:43;1.90;;;1.52;;
53052;SDS011;38934;52.690;6.184;2022-09-03T17:04:23;1.15;;;1.05;;
53052;SDS011;38934;52.690;6.184;2022-09-03T17:07:20;1.10;;;1.00;;
53052;SDS011;38934;52.690;6.184;2022-09-03T17:15:35;2.17;;;1.13;;
53052;SDS011;38934;52.690;6.184;2022-09-03T17:23:42;3.45;;;1.10;;
53052;SDS011;38934;52.690;6.184;2022-09-03T17:29:40;1.40;;;1.30;;
53052;SDS011;38934;52.690;6.184;2022-09-03T17:34:59;3.80;;;1.60;;
53052;SDS011;38934;52.690;6.184;2022-09-03T17:45:58;2.70;;;1.20;;
53052;SDS011;38934;52.690;6.184;2022-09-03T17:54:20;1.90;;;1.77;;
53052;SDS011;38934;52.690;6.184;2022-09-03T18:00:05;1.67;;;1.30;;
53052;SDS011;38934;52.690;6.184;2022-09-03T18:02:36;1.98;;;1.20;;
53052;SDS011;38934;52.690;6.184;2022-09-03T18:18:48;1.55;;;1.45;;
53052;SDS011;38934;52.690;6.184;2022-09-03T18:21:18;1.73;;;1.50;;
53052;SDS011;38934;52.690;6.184;2022-09-03T18:27:17;1.58;;;1.48;;
53052;SDS011;38934;52.690;6.184;2022-09-03T18:30:11;1.83;;;1.45;;
53052;SDS011;38934;52.690;6.184;2022-09-03T18:32:57;5.78;;;1.60;;
53052;SDS011;38934;52.690;6.184;2022-09-03T18:35:45;4.15;;;1.63;;
53052;SDS011;38934;52.690;6.184;2022-09-03T18:38:32;1.50;;;1.40;;
53052;SDS011;38934;52.690;6.184;2022-09-03T18:50:16;4.65;;;1.75;;
53052;SDS011;38934;52.690;6.184;2022-09-03T18:53:17;1.75;;;1.60;;
53052;SDS011;38934;52.690;6.184;2022-09-03T18:56:22;2.30;;;1.50;;
53052;SDS011;38934;52.690;6.184;2022-09-03T18:59:25;1.85;;;1.63;;
53052;SDS011;38934;52.690;6.184;2022-09-03T19:12:10;2.75;;;1.67;;
53052;SDS011;38934;52.690;6.184;2022-09-03T19:15:22;2.95;;;1.90;;
53052;SDS011;38934;52.690;6.184;2022-09-03T19:24:28;1.85;;;1.70;;
53052;SDS011;38934;52.690;6.184;2022-09-03T19:27:16;1.95;;;1.60;;
53052;SDS011;38934;52.690;6.184;2022-09-03T19:30:25;5.20;;;1.90;;
53052;SDS011;38934;52.690;6.184;2022-09-03T19:33:20;3.42;;;1.60;;
53052;SDS011;38934;52.690;6.184;2022-09-03T19:51:55;3.58;;;2.45;;
53052;SDS011;38934;52.690;6.184;2022-09-03T19:57:38;2.75;;;1.92;;
53052;SDS011;38934;52.690;6.184;2022-09-03T20:00:24;3.35;;;2.05;;
53052;SDS011;38934;52.690;6.184;2022-09-03T20:03:11;2.35;;;1.75;;
53052;SDS011;38934;52.690;6.184;2022-09-03T20:05:57;2.92;;;2.00;;
53052;SDS011;38934;52.690;6.184;2022-09-03T20:08:44;5.45;;;2.20;;
53052;SDS011;38934;52.690;6.184;2022-09-03T20:11:30;3.22;;;2.22;;
53052;SDS011;38934;52.690;6.184;2022-09-03T20:13:56;3.95;;;2.38;;
53052;SDS011;38934;52.690;6.184;2022-09-03T20:30:17;3.47;;;2.30;;
53052;SDS011;38934;52.690;6.184;2022-09-03T20:44:27;2.40;;;1.80;;
53052;SDS011;38934;52.690;6.184;2022-09-03T20:47:13;2.85;;;1.60;;
53052;SDS011;38934;52.690;6.184;2022-09-03T20:49:45;3.45;;;2.00;;
53052;SDS011;38934;52.690;6.184;2022-09-03T20:55:28;1.88;;;1.70;;
53052;SDS011;38934;52.690;6.184;2022-09-03T20:58:03;2.08;;;1.80;;
53052;SDS011;38934;52.690;6.184;2022-09-03T21:05:54;3.47;;;2.00;;
53052;SDS011;38934;52.690;6.184;2022-09-03T21:11:24;2.15;;;1.77;;
53052;SDS011;38934;52.690;6.184;2022-09-03T21:22:49;3.85;;;1.70;;
53052;SDS011;38934;52.690;6.184;2022-09-03T21:25:31;4.15;;;2.08;;
53052;SDS011;38934;52.690;6.184;2022-09-03T21:28:10;2.58;;;2.03;;
53052;SDS011;38934;52.690;6.184;2022-09-03T21:30:42;2.15;;;1.70;;
53052;SDS011;38934;52.690;6.184;2022-09-03T21:33:18;3.85;;;1.95;;
53052;SDS011;38934;52.690;6.184;2022-09-03T21:35:58;1.83;;;1.70;;
53052;SDS011;38934;52.690;6.184;2022-09-03T21:43:53;3.88;;;1.80;;
53052;SDS011;38934;52.690;6.184;2022-09-03T21:46:24;2.65;;;1.63;;
53052;SDS011;38934;52.690;6.184;2022-09-03T21:49:08;2.28;;;1.92;;
53052;SDS011;38934;52.690;6.184;2022-09-03T21:54:07;3.17;;;1.70;;
53052;SDS011;38934;52.690;6.184;2022-09-03T21:57:02;3.40;;;1.58;;
53052;SDS011;38934;52.690;6.184;2022-09-03T22:02:37;2.80;;;1.90;;
53052;SDS011;38934;52.690;6.184;2022-09-03T22:05:04;1.95;;;1.75;;
53052;SDS011;38934;52.690;6.184;2022-09-03T22:13:15;3.65;;;1.88;;
53052;SDS011;38934;52.690;6.184;2022-09-03T22:15:49;3.20;;;1.80;;
53052;SDS011;38934;52.690;6.184;2022-09-03T22:18:26;4.10;;;2.00;;